Mendon - 24 Hour Table
Date & TimeSolar
Radiation
(W/m²)
Wind
Speed
(mph)
Wind
Direction
(degrees)
Air
Temperature
(°F)
Relative
Humidity
(%)
Precipitation
(inches)
2018/10/15 22:00 0 0.0 316 30.8 79 0.00
2018/10/15 21:00 0 0.0 328 32.3 77 0.00
2018/10/15 20:00 0 0.0 352 34.7 68 0.00
2018/10/15 19:00 1 0.0 270 36.0 62 0.00
2018/10/15 18:00 7 0.0 161 38.7 59 0.00
2018/10/15 17:00 20 0.0 157 45.5 52 0.00
2018/10/15 16:00 60 0.1 136 48.7 33 0.00
2018/10/15 15:00 353 0.3 118 48.5 31 0.00
2018/10/15 14:00 697 0.6 344 48.8 32 0.00
2018/10/15 13:00 753 0.8 345 45.9 31 0.00
2018/10/15 12:00 743 0.5 16 42.6 40 0.00
2018/10/15 11:00 674 0.6 344 38.4 41 0.00
2018/10/15 10:00 549 0.6 145 34.4 46 0.00
2018/10/15 09:00 337 0.3 159 29.6 66 0.00
2018/10/15 08:00 42 0.0 2 22.6 79 0.00
2018/10/15 07:00 3 0.0 318 20.3 89 0.00
2018/10/15 06:00 0 0.0 315 20.8 88 0.00
2018/10/15 05:00 0 0.0 317 21.5 84 0.00
2018/10/15 04:00 0 0.0 318 21.7 81 0.00
2018/10/15 03:00 0 0.0 321 22.6 80 0.00
2018/10/15 02:00 0 0.0 316 23.2 81 0.00
2018/10/15 01:00 0 0.0 318 24.6 74 0.00
2018/10/15 00:00 0 0.0 310 25.7 75 0.00
2018/10/14 23:00 0 0.0 234 27.9 69 0.00